Time;durP1;ratioP1;P1;durP2;ratioP2;P2;SDS_P1;SDS_P2;PMS_P1;PMS_P2;Temp;Humidity;BMP_temperature;BMP_pressure;BME280_temperature;BME280_humidity;BME280_pressure;Samples;Min_cycle;Max_cycle;Signal;HPM_P1;HPM_P2
2021/09/23 00:00:58;;;;;;;10.93;5.75;;;11.20;32.90;;;;;;5053716;28;20102;-73
2021/09/23 00:03:44;;;;;;;11.10;6.30;;;11.20;31.70;;;;;;5056923;28;20059;-73
2021/09/23 00:06:13;;;;;;;8.43;6.03;;;11.10;32.70;;;;;;5032315;28;20057;-72
2021/09/23 00:08:43;;;;;;;9.07;5.55;;;11.00;33.40;;;;;;5053792;28;20045;-73
2021/09/23 00:11:11;;;;;;;10.50;6.28;;;11.00;33.60;;;;;;5044997;28;20045;-73
2021/09/23 00:13:39;;;;;;;7.85;5.53;;;11.00;33.50;;;;;;5053694;28;20044;-73
2021/09/23 00:16:07;;;;;;;10.32;5.88;;;11.10;32.80;;;;;;5031085;28;20036;-73
2021/09/23 00:18:35;;;;;;;8.77;5.15;;;11.10;32.10;;;;;;5058353;28;20460;-73
2021/09/23 00:21:06;;;;;;;7.05;5.60;;;11.00;32.90;;;;;;5059970;28;20123;-74
2021/09/23 00:23:34;;;;;;;11.57;6.32;;;11.00;33.70;;;;;;5052150;28;20044;-73
2021/09/23 00:26:04;;;;;;;9.65;6.63;;;10.90;34.10;;;;;;5034012;28;20048;-73
2021/09/23 00:28:32;;;;;;;7.32;6.13;;;10.90;34.80;;;;;;5057624;28;20040;-73
2021/09/23 00:31:00;;;;;;;7.65;6.15;;;10.80;35.70;;;;;;5035656;28;20796;-73
2021/09/23 00:33:28;;;;;;;13.55;7.70;;;10.80;36.20;;;;;;5056511;28;20044;-72
2021/09/23 00:36:12;;;;;;;12.55;8.85;;;10.80;36.60;;;;;;5052014;28;20049;-72
2021/09/23 00:38:41;;;;;;;15.05;9.38;;;10.80;36.60;;;;;;5049857;28;20044;-73
2021/09/23 00:41:10;;;;;;;13.65;8.48;;;10.80;36.70;;;;;;5054576;28;20139;-73
2021/09/23 00:43:38;;;;;;;13.63;8.88;;;10.70;37.00;;;;;;5061054;28;20486;-74
2021/09/23 00:46:07;;;;;;;11.60;8.98;;;10.70;37.60;;;;;;5054015;28;20067;-73
2021/09/23 00:48:35;;;;;;;14.73;10.27;;;10.70;37.70;;;;;;5057825;28;20041;-73
2021/09/23 00:51:03;;;;;;;17.58;11.52;;;10.70;37.70;;;;;;5062747;28;20055;-73
2021/09/23 00:53:31;;;;;;;12.88;10.10;;;10.90;37.10;;;;;;5036557;28;20057;-73
2021/09/23 00:55:59;;;;;;;20.55;10.75;;;10.90;35.80;;;;;;5050158;28;20139;-74
2021/09/23 00:58:30;;;;;;;16.52;10.25;;;10.80;36.00;;;;;;5062346;28;20040;-74
2021/09/23 01:00:59;;;;;;;13.65;9.15;;;10.80;36.40;;;;;;5054791;28;20529;-74
2021/09/23 01:03:27;;;;;;;11.48;8.55;;;10.70;37.60;;;;;;5054841;28;20052;-74
2021/09/23 01:05:56;;;;;;;14.07;10.23;;;10.70;37.10;;;;;;5056657;28;20048;-74
2021/09/23 01:08:24;;;;;;;16.92;10.57;;;10.60;37.40;;;;;;5057892;28;20051;-73
2021/09/23 01:10:54;;;;;;;15.30;11.45;;;10.60;37.60;;;;;;5053726;28;20063;-73
2021/09/23 01:13:24;;;;;;;16.45;12.15;;;10.60;37.60;;;;;;5061221;28;20076;-73
2021/09/23 01:15:53;;;;;;;18.88;11.60;;;10.60;37.60;;;;;;5033854;28;20052;-73
2021/09/23 01:18:22;;;;;;;15.18;10.70;;;10.50;37.90;;;;;;5054911;28;20487;-72
2021/09/23 01:20:51;;;;;;;14.82;10.75;;;10.50;38.00;;;;;;5054800;28;20045;-72
2021/09/23 01:23:21;;;;;;;16.70;11.82;;;10.40;38.70;;;;;;5051630;28;20073;-73
2021/09/23 01:25:49;;;;;;;16.77;10.55;;;10.40;38.80;;;;;;5051431;28;20052;-73
2021/09/23 01:28:20;;;;;;;17.98;11.40;;;10.40;39.00;;;;;;5055296;28;20449;-73
2021/09/23 01:30:50;;;;;;;15.10;9.88;;;10.40;39.10;;;;;;5040026;28;20766;-74
2021/09/23 01:33:22;;;;;;;15.13;9.95;;;10.30;39.20;;;;;;5061551;28;20048;-73
2021/09/23 01:35:53;;;;;;;9.88;7.65;;;10.30;40.10;;;;;;5050004;28;20047;-73
2021/09/23 01:38:25;;;;;;;9.10;6.97;;;10.20;39.70;;;;;;5054162;28;20045;-73
2021/09/23 01:40:54;;;;;;;10.85;7.25;;;10.20;38.70;;;;;;5057105;28;20234;-72
2021/09/23 01:43:22;;;;;;;13.30;8.15;;;10.00;39.90;;;;;;5055555;28;20049;-74
2021/09/23 01:45:52;;;;;;;12.52;7.82;;;10.00;41.00;;;;;;5047881;28;20660;-73
2021/09/23 01:48:21;;;;;;;12.23;9.10;;;10.00;41.20;;;;;;5061412;28;20436;-73
2021/09/23 01:50:49;;;;;;;12.73;8.13;;;9.90;42.10;;;;;;5059529;28;20612;-73
2021/09/23 01:53:17;;;;;;;14.80;9.18;;;10.00;41.40;;;;;;5056736;28;20102;-73
2021/09/23 01:55:46;;;;;;;13.70;8.30;;;9.90;42.10;;;;;;5048570;28;20605;-75
2021/09/23 01:58:14;;;;;;;10.65;6.93;;;9.80;42.20;;;;;;5057340;28;20114;-72
2021/09/23 02:00:42;;;;;;;16.98;10.05;;;9.80;42.90;;;;;;5053585;28;20049;-73
2021/09/23 02:03:11;;;;;;;12.88;10.43;;;9.80;43.20;;;;;;5052020;28;20653;-73
2021/09/23 02:05:40;;;;;;;16.13;10.77;;;9.80;43.60;;;;;;5053428;28;20070;-73
2021/09/23 02:08:08;;;;;;;16.70;11.02;;;9.80;43.50;;;;;;5052358;28;20045;-73
2021/09/23 02:10:36;;;;;;;17.27;11.57;;;9.80;44.00;;;;;;5054403;28;20049;-72
2021/09/23 02:13:06;;;;;;;15.77;10.20;;;9.80;44.00;;;;;;5058006;28;20051;-73
2021/09/23 02:15:34;;;;;;;16.42;10.40;;;9.80;43.90;;;;;;5048828;28;20055;-74
2021/09/23 02:18:02;;;;;;;13.27;10.43;;;9.80;43.50;;;;;;5052874;28;20562;-72
2021/09/23 02:20:31;;;;;;;16.38;11.30;;;9.60;43.80;;;;;;5034236;28;20515;-73
2021/09/23 02:22:59;;;;;;;16.95;11.32;;;9.70;45.00;;;;;;5054906;28;20047;-73
2021/09/23 02:25:27;;;;;;;16.58;11.30;;;9.70;45.30;;;;;;5049345;28;20048;-72
2021/09/23 02:27:55;;;;;;;18.08;11.90;;;9.80;45.10;;;;;;5059847;28;20071;-72
2021/09/23 02:30:25;;;;;;;17.85;11.90;;;9.80;44.90;;;;;;5055054;28;20522;-73
2021/09/23 02:32:53;;;;;;;18.75;12.02;;;9.70;44.60;;;;;;5034328;28;20051;-72
2021/09/23 02:35:21;;;;;;;18.02;11.50;;;9.60;44.00;;;;;;5054348;28;20117;-72
2021/09/23 02:37:49;;;;;;;14.80;10.20;;;9.60;45.00;;;;;;5057626;28;20048;-73
2021/09/23 02:40:17;;;;;;;14.52;9.98;;;9.50;45.40;;;;;;5057395;28;20052;-73
2021/09/23 02:42:45;;;;;;;16.35;10.30;;;9.50;45.00;;;;;;5060636;28;20052;-73
2021/09/23 02:45:15;;;;;;;16.88;10.65;;;9.50;44.80;;;;;;5058440;28;20065;-73
2021/09/23 02:47:44;;;;;;;15.10;10.52;;;9.60;45.20;;;;;;5058405;28;20234;-74
2021/09/23 02:50:12;;;;;;;18.70;12.07;;;9.60;45.40;;;;;;5039207;28;20059;-74
2021/09/23 02:52:41;;;;;;;19.90;13.02;;;9.60;45.10;;;;;;5042431;28;20132;-73
2021/09/23 02:55:09;;;;;;;16.95;11.57;;;9.60;44.90;;;;;;5056981;28;20522;-73
2021/09/23 02:57:38;;;;;;;19.08;12.30;;;9.50;44.70;;;;;;5053065;28;20041;-73
2021/09/23 03:00:07;;;;;;;15.18;11.30;;;9.50;45.90;;;;;;5062019;28;20131;-73
2021/09/23 03:02:35;;;;;;;18.35;11.52;;;9.50;45.90;;;;;;5056713;28;20052;-74
2021/09/23 03:05:06;;;;;;;13.13;9.73;;;9.50;45.90;;;;;;5055210;28;20079;-74
2021/09/23 03:07:34;;;;;;;15.93;10.10;;;9.40;45.80;;;;;;5059474;28;20041;-73
2021/09/23 03:10:02;;;;;;;17.02;10.55;;;9.40;45.50;;;;;;5063020;28;20044;-74
2021/09/23 03:12:30;;;;;;;15.07;11.45;;;9.40;45.70;;;;;;5056569;28;20037;-74
2021/09/23 03:14:58;;;;;;;16.38;11.13;;;9.40;45.70;;;;;;5058234;28;20171;-74
2021/09/23 03:17:26;;;;;;;14.30;10.23;;;9.40;45.70;;;;;;5062826;28;20052;-73
2021/09/23 03:19:54;;;;;;;14.02;9.57;;;9.30;45.50;;;;;;5058807;28;20079;-73
2021/09/23 03:22:24;;;;;;;14.13;9.15;;;9.10;45.10;;;;;;5061349;28;20079;-74
2021/09/23 03:24:54;;;;;;;11.02;8.95;;;9.10;44.30;;;;;;5056058;28;20044;-73
2021/09/23 03:27:22;;;;;;;13.20;9.05;;;9.10;44.40;;;;;;5058375;28;20049;-74
2021/09/23 03:29:50;;;;;;;13.88;9.90;;;9.20;45.30;;;;;;5061589;28;20041;-73
2021/09/23 03:32:19;;;;;;;12.13;9.82;;;9.20;45.60;;;;;;5059370;28;20052;-73
2021/09/23 03:34:47;;;;;;;12.43;9.48;;;9.10;45.40;;;;;;5060727;28;20051;-74
2021/09/23 03:37:15;;;;;;;13.15;9.95;;;9.00;44.90;;;;;;5060930;28;20063;-73
2021/09/23 03:39:46;;;;;;;16.80;10.63;;;8.90;45.40;;;;;;5057438;28;20098;-74
2021/09/23 03:42:15;;;;;;;13.95;10.68;;;9.00;45.60;;;;;;5057917;28;20071;-74
2021/09/23 03:44:43;;;;;;;16.38;10.90;;;9.10;46.20;;;;;;5060911;28;20070;-73
2021/09/23 03:47:11;;;;;;;20.40;14.00;;;9.20;45.80;;;;;;5059534;28;20051;-73
2021/09/23 03:49:39;;;;;;;22.27;13.77;;;9.30;46.40;;;;;;5059347;28;20064;-73
2021/09/23 03:52:07;;;;;;;20.55;13.65;;;9.30;46.50;;;;;;5067337;28;20048;-73
2021/09/23 03:54:35;;;;;;;17.05;11.98;;;9.30;46.90;;;;;;5052971;28;20052;-73
2021/09/23 03:57:04;;;;;;;15.00;10.75;;;9.20;45.70;;;;;;5061519;28;20052;-74
2021/09/23 03:59:32;;;;;;;15.85;10.85;;;9.10;44.40;;;;;;5063385;28;20064;-74
2021/09/23 04:02:00;;;;;;;14.35;10.82;;;9.00;44.80;;;;;;5063493;28;20495;-74
2021/09/23 04:04:28;;;;;;;14.75;11.77;;;9.00;45.30;;;;;;5053484;28;20550;-74
2021/09/23 04:06:56;;;;;;;16.15;12.00;;;9.10;45.50;;;;;;5059207;28;20067;-74
2021/09/23 04:09:24;;;;;;;20.90;13.27;;;9.10;45.60;;;;;;5061321;28;20106;-73
2021/09/23 04:11:52;;;;;;;20.35;14.40;;;9.20;46.50;;;;;;5056527;28;20499;-74
2021/09/23 04:14:22;;;;;;;21.05;13.77;;;9.20;47.90;;;;;;5059228;28;20052;-74
2021/09/23 04:16:50;;;;;;;20.63;12.82;;;9.30;47.80;;;;;;5059532;28;20550;-73
2021/09/23 04:19:19;;;;;;;17.20;12.80;;;9.30;47.50;;;;;;5056237;28;20076;-73
2021/09/23 04:21:48;;;;;;;20.50;13.15;;;9.30;47.80;;;;;;5042682;28;20127;-73
2021/09/23 04:24:17;;;;;;;17.17;12.32;;;9.30;47.60;;;;;;5056965;28;20113;-71
2021/09/23 04:26:47;;;;;;;18.95;13.07;;;9.30;47.30;;;;;;5061413;28;20041;-73
2021/09/23 04:29:17;;;;;;;18.23;12.68;;;9.30;46.80;;;;;;5055590;28;20049;-73
2021/09/23 04:31:47;;;;;;;17.25;13.05;;;9.30;46.70;;;;;;5061940;28;20140;-73
2021/09/23 04:34:15;;;;;;;16.55;12.13;;;9.30;46.60;;;;;;5056013;28;20443;-73
2021/09/23 04:36:43;;;;;;;21.25;14.10;;;9.30;46.70;;;;;;5055363;28;20552;-73
2021/09/23 04:39:12;;;;;;;21.08;14.40;;;9.30;46.40;;;;;;5061847;28;20053;-73
2021/09/23 04:41:42;;;;;;;20.13;13.85;;;9.30;45.80;;;;;;5034612;28;20578;-75
2021/09/23 04:44:14;;;;;;;19.40;13.52;;;9.30;45.80;;;;;;5023830;28;20076;-74
2021/09/23 04:46:44;;;;;;;23.13;14.05;;;9.30;45.80;;;;;;5058381;28;20057;-74
2021/09/23 04:49:22;;;;;;;20.30;13.90;;;9.30;45.80;;;;;;5062966;28;20083;-75
2021/09/23 04:51:53;;;;;;;24.58;14.77;;;9.30;45.70;;;;;;5058532;28;20128;-73
2021/09/23 04:54:21;;;;;;;23.17;14.00;;;9.20;45.70;;;;;;5039218;28;20452;-73
2021/09/23 04:56:50;;;;;;;23.00;14.65;;;9.20;45.70;;;;;;5066233;28;20044;-73
2021/09/23 04:59:21;;;;;;;26.35;13.68;;;9.30;45.50;;;;;;5062684;28;20064;-74
2021/09/23 05:01:49;;;;;;;26.23;13.15;;;9.30;45.40;;;;;;5060740;28;20091;-73
2021/09/23 05:04:21;;;;;;;19.30;12.60;;;9.30;44.70;;;;;;5059783;28;20044;-74
2021/09/23 05:06:53;;;;;;;20.88;12.45;;;9.30;44.30;;;;;;5058581;28;20128;-73
2021/09/23 05:09:21;;;;;;;25.33;13.55;;;9.30;44.80;;;;;;5058212;28;20514;-72
2021/09/23 05:11:50;;;;;;;19.95;12.57;;;9.20;44.30;;;;;;5062315;28;20471;-75
2021/09/23 05:14:18;;;;;;;21.10;13.55;;;9.20;44.50;;;;;;5039524;28;20047;-73
2021/09/23 05:16:46;;;;;;;28.45;13.45;;;9.20;44.50;;;;;;5060535;28;20044;-73
2021/09/23 05:19:15;;;;;;;34.13;14.50;;;9.10;44.50;;;;;;5057175;28;20129;-73
2021/09/23 05:21:44;;;;;;;29.67;14.13;;;9.20;45.20;;;;;;5038740;28;20510;-73
2021/09/23 05:24:13;;;;;;;23.70;13.50;;;9.20;45.10;;;;;;5055842;28;20141;-73
2021/09/23 05:26:41;;;;;;;30.30;13.73;;;9.30;45.10;;;;;;5058587;28;20057;-73
2021/09/23 05:29:09;;;;;;;21.92;13.20;;;9.20;44.20;;;;;;5062708;28;20083;-74
2021/09/23 05:31:37;;;;;;;18.63;11.70;;;9.30;44.20;;;;;;5059112;28;20048;-74
2021/09/23 05:34:05;;;;;;;18.70;11.57;;;9.30;44.10;;;;;;5060286;28;20094;-73
2021/09/23 05:36:33;;;;;;;23.33;13.40;;;9.40;43.50;;;;;;5068526;28;20059;-73
2021/09/23 05:39:04;;;;;;;17.83;11.35;;;9.40;42.50;;;;;;5060624;28;20068;-73
2021/09/23 05:41:33;;;;;;;20.70;12.82;;;9.50;42.60;;;;;;5064901;28;20060;-73
2021/09/23 05:44:01;;;;;;;17.80;11.20;;;9.50;42.10;;;;;;5061941;28;20546;-73
2021/09/23 05:46:29;;;;;;;19.95;12.60;;;9.60;41.70;;;;;;5060405;28;20043;-74
2021/09/23 05:48:57;;;;;;;16.65;11.60;;;9.70;41.60;;;;;;5062842;28;20041;-73
2021/09/23 05:51:25;;;;;;;22.15;12.52;;;9.80;40.50;;;;;;5067276;28;20623;-73
2021/09/23 05:53:53;;;;;;;20.63;12.02;;;9.90;39.80;;;;;;5059000;28;20869;-73
2021/09/23 05:56:23;;;;;;;19.52;11.88;;;10.00;38.00;;;;;;5043420;28;20049;-73
2021/09/23 05:58:51;;;;;;;22.13;12.60;;;10.10;37.00;;;;;;5049097;28;20048;-74
2021/09/23 06:01:19;;;;;;;16.00;11.20;;;10.00;35.40;;;;;;5061853;28;20056;-73
2021/09/23 06:03:52;;;;;;;17.17;11.52;;;10.00;35.40;;;;;;5039310;28;20515;-73
2021/09/23 06:06:20;;;;;;;18.80;12.23;;;10.10;36.00;;;;;;5069216;28;20040;-73
2021/09/23 06:08:49;;;;;;;19.25;12.05;;;10.10;34.70;;;;;;5059123;28;20052;-73
2021/09/23 06:11:18;;;;;;;19.40;11.98;;;10.10;34.50;;;;;;5061711;28;20061;-72
2021/09/23 06:13:48;;;;;;;20.70;11.85;;;10.20;34.20;;;;;;5061134;28;20044;-75
2021/09/23 06:16:21;;;;;;;18.05;12.15;;;10.20;33.30;;;;;;5044123;28;20060;-74
2021/09/23 06:18:49;;;;;;;18.80;11.82;;;10.20;32.90;;;;;;5059280;28;20052;-73
2021/09/23 06:21:20;;;;;;;20.25;12.77;;;10.20;32.40;;;;;;5048410;28;20056;-73
2021/09/23 06:23:49;;;;;;;27.27;14.15;;;10.30;33.00;;;;;;5057022;28;20123;-73
2021/09/23 06:26:20;;;;;;;20.65;13.25;;;10.40;31.10;;;;;;5057799;28;20140;-73
2021/09/23 06:28:55;;;;;;;27.70;14.13;;;10.40;30.40;;;;;;5063889;28;20052;-73
2021/09/23 06:31:25;;;;;;;20.33;13.05;;;10.50;30.60;;;;;;5045037;28;20053;-73
2021/09/23 06:33:53;;;;;;;19.85;13.18;;;10.70;29.40;;;;;;5063600;28;20070;-72
2021/09/23 06:36:21;;;;;;;19.55;12.45;;;10.90;28.30;;;;;;5067060;28;20040;-72
2021/09/23 06:38:53;;;;;;;23.85;10.55;;;10.90;27.40;;;;;;5063009;28;20051;-72
2021/09/23 06:41:24;;;;;;;14.75;10.38;;;10.70;27.20;;;;;;5064148;28;20040;-72
2021/09/23 06:43:54;;;;;;;14.63;10.27;;;10.70;27.90;;;;;;5061467;28;20361;-72
2021/09/23 06:46:26;;;;;;;16.73;11.05;;;10.70;27.70;;;;;;5066710;28;20131;-72
2021/09/23 06:48:54;;;;;;;17.77;10.88;;;10.80;26.90;;;;;;5068081;28;20133;-71
2021/09/23 06:51:23;;;;;;;18.48;11.98;;;10.90;27.70;;;;;;5065632;28;20444;-72
2021/09/23 06:54:07;;;;;;;22.80;12.88;;;11.10;27.50;;;;;;5063286;28;20041;-72
2021/09/23 06:56:35;;;;;;;20.77;12.70;;;11.40;24.90;;;;;;5066974;28;20114;-72
2021/09/23 06:59:04;;;;;;;17.90;12.45;;;11.60;24.20;;;;;;5064760;28;20183;-72
2021/09/23 07:01:37;;;;;;;18.10;11.23;;;11.80;23.30;;;;;;5062053;28;20043;-72
2021/09/23 07:04:06;;;;;;;16.58;11.05;;;11.80;21.80;;;;;;5064438;28;20067;-73
2021/09/23 07:06:34;;;;;;;18.60;10.45;;;12.00;20.70;;;;;;5064525;28;20616;-72
2021/09/23 07:09:07;;;;;;;15.73;9.63;;;12.00;19.50;;;;;;5063667;28;20053;-73
2021/09/23 07:11:40;;;;;;;13.63;9.35;;;11.90;19.10;;;;;;5065210;28;20070;-73
2021/09/23 07:14:10;;;;;;;12.95;9.07;;;12.20;19.20;;;;;;5065452;28;20044;-72
2021/09/23 07:16:39;;;;;;;13.10;8.95;;;12.10;18.00;;;;;;5067539;28;20115;-74
2021/09/23 07:19:06;;;;;;;19.08;9.68;;;12.20;18.30;;;;;;5066882;28;20449;-73
2021/09/23 07:21:57;;;;;;;13.05;9.85;;;12.20;17.50;;;;;;5064378;28;20149;-73
2021/09/23 07:24:26;;;;;;;14.02;9.50;;;12.40;16.70;;;;;;5063348;28;20084;-72
2021/09/23 07:26:54;;;;;;;14.98;9.85;;;12.40;15.50;;;;;;5067542;28;20085;-73
2021/09/23 07:29:25;;;;;;;16.45;10.07;;;12.40;15.80;;;;;;5063320;28;20148;-73
2021/09/23 07:31:55;;;;;;;16.25;9.95;;;12.40;15.30;;;;;;5060164;28;20118;-72
2021/09/23 07:34:24;;;;;;;43.15;28.80;;;12.70;14.90;;;;;;5061888;28;20117;-72
2021/09/23 07:36:52;;;;;;;17.45;9.27;;;12.70;13.30;;;;;;5060286;28;20052;-72
2021/09/23 07:39:25;;;;;;;16.70;9.27;;;12.60;14.00;;;;;;5059656;28;20048;-73
2021/09/23 07:41:53;;;;;;;12.35;8.77;;;12.70;14.30;;;;;;5056319;28;20135;-73
2021/09/23 07:44:27;;;;;;;16.30;9.57;;;12.90;14.70;;;;;;5056814;28;20040;-72
2021/09/23 07:46:59;;;;;;;11.73;9.07;;;12.90;13.30;;;;;;5060081;28;20048;-73
2021/09/23 07:49:28;;;;;;;16.08;9.02;;;13.10;12.40;;;;;;5063601;28;20124;-72
2021/09/23 07:52:00;;;;;;;16.10;9.73;;;13.30;12.80;;;;;;5063428;28;20159;-73
2021/09/23 07:54:28;;;;;;;14.23;8.82;;;13.50;10.40;;;;;;5048369;28;20059;-73
2021/09/23 07:56:57;;;;;;;12.05;8.80;;;13.50;9.70;;;;;;5061561;28;20039;-73
2021/09/23 07:59:30;;;;;;;11.25;8.68;;;13.70;8.90;;;;;;5064494;28;20036;-72
2021/09/23 08:01:59;;;;;;;17.75;9.45;;;13.90;8.70;;;;;;5061633;28;20496;-73
2021/09/23 08:04:28;;;;;;;12.63;7.90;;;13.90;7.90;;;;;;5061992;28;20037;-73
2021/09/23 08:06:58;;;;;;;10.45;7.43;;;13.90;6.70;;;;;;5064616;28;20581;-74
2021/09/23 08:09:29;;;;;;;11.68;8.20;;;14.00;5.50;;;;;;5065136;28;20056;-73
2021/09/23 08:11:59;;;;;;;11.13;7.78;;;14.10;6.20;;;;;;5060567;28;20444;-73
2021/09/23 08:14:29;;;;;;;11.48;7.32;;;14.30;4.20;;;;;;5061962;28;20451;-73
2021/09/23 08:16:57;;;;;;;11.95;7.82;;;14.50;3.70;;;;;;5061157;28;20045;-73
2021/09/23 08:19:29;;;;;;;10.05;7.18;;;14.70;3.10;;;;;;5062344;28;20041;-72
2021/09/23 08:21:59;;;;;;;11.93;7.68;;;14.80;1.90;;;;;;5057656;28;20045;-73
2021/09/23 08:24:31;;;;;;;11.23;7.43;;;15.00;1.70;;;;;;5065525;28;20059;-74
2021/09/23 08:26:59;;;;;;;16.55;9.63;;;14.90;1.10;;;;;;5064065;28;20044;-73
2021/09/23 08:29:34;;;;;;;15.63;8.00;;;15.10;1.20;;;;;;5061955;28;20041;-73
2021/09/23 08:32:02;;;;;;;10.13;6.70;;;15.40;1.00;;;;;;5058520;28;20059;-73
2021/09/23 08:34:30;;;;;;;12.93;7.57;;;15.50;1.00;;;;;;5059262;28;20037;-73
2021/09/23 08:37:01;;;;;;;11.88;8.00;;;15.40;1.00;;;;;;5046090;28;20041;-73
2021/09/23 08:39:30;;;;;;;10.85;7.47;;;15.50;1.00;;;;;;5067344;28;20040;-73
2021/09/23 08:42:04;;;;;;;14.27;7.55;;;15.40;1.00;;;;;;5047351;28;20120;-72
2021/09/23 08:44:36;;;;;;;10.55;7.18;;;15.80;1.00;;;;;;5061945;28;20132;-73
2021/09/23 08:47:05;;;;;;;13.45;6.65;;;15.90;1.00;;;;;;5050722;28;20044;-73
2021/09/23 08:49:33;;;;;;;12.18;7.38;;;16.10;1.00;;;;;;5060406;28;20048;-75
2021/09/23 08:52:01;;;;;;;12.63;7.50;;;16.10;1.00;;;;;;5063195;28;20048;-74
2021/09/23 08:54:31;;;;;;;11.35;7.05;;;16.10;1.00;;;;;;5054399;28;20032;-74
2021/09/23 08:57:03;;;;;;;12.98;9.38;;;16.30;1.00;;;;;;5063933;28;20054;-73
2021/09/23 08:59:32;;;;;;;9.82;7.45;;;16.40;1.00;;;;;;5026973;28;20459;-76
2021/09/23 09:02:23;;;;;;;9.80;7.38;;;16.50;1.00;;;;;;5033921;28;20045;-74
2021/09/23 09:04:55;;;;;;;11.52;7.68;;;16.20;1.00;;;;;;5054859;28;20044;-73
2021/09/23 09:07:28;;;;;;;10.07;6.72;;;16.30;1.00;;;;;;5072976;28;20051;-74
2021/09/23 09:10:02;;;;;;;11.00;6.82;;;16.10;1.00;;;;;;5067949;28;20048;-74
2021/09/23 09:12:31;;;;;;;11.35;6.75;;;16.50;1.00;;;;;;5066210;28;20044;-74
2021/09/23 09:15:02;;;;;;;10.30;6.32;;;16.70;1.00;;;;;;5067122;28;20050;-74
2021/09/23 09:17:38;;;;;;;14.05;6.50;;;16.70;1.00;;;;;;5051235;28;20511;-74
2021/09/23 09:20:09;;;;;;;9.90;6.25;;;16.60;1.00;;;;;;5047110;28;20455;-74
2021/09/23 09:22:38;;;;;;;8.45;5.55;;;17.00;1.00;;;;;;5066447;28;20052;-74
2021/09/23 09:25:09;;;;;;;9.93;6.53;;;17.10;1.00;;;;;;5066970;28;20063;-73
2021/09/23 09:27:39;;;;;;;8.00;5.28;;;17.10;1.00;;;;;;5065812;28;20048;-73
2021/09/23 09:30:10;;;;;;;8.10;5.50;;;17.30;1.00;;;;;;5044753;28;20242;-73
2021/09/23 09:32:47;;;;;;;8.90;6.28;;;17.20;1.00;;;;;;5051000;28;20468;-73
2021/09/23 09:35:18;;;;;;;9.25;5.65;;;17.20;1.00;;;;;;5066125;28;20778;-74
2021/09/23 09:37:49;;;;;;;10.38;6.03;;;17.40;1.00;;;;;;5071099;28;20098;-72
2021/09/23 09:40:20;;;;;;;11.90;6.63;;;17.70;1.00;;;;;;5067229;28;20048;-74
2021/09/23 09:42:51;;;;;;;11.52;7.50;;;17.80;1.00;;;;;;5068174;28;20044;-75
2021/09/23 09:45:26;;;;;;;14.93;7.28;;;17.40;1.00;;;;;;5062327;28;20045;-73
2021/09/23 09:47:58;;;;;;;10.48;7.55;;;17.50;1.00;;;;;;5069080;28;20053;-72
2021/09/23 09:50:29;;;;;;;11.27;6.38;;;17.60;1.00;;;;;;5062951;28;20079;-74
2021/09/23 09:53:05;;;;;;;8.10;5.72;;;18.00;1.00;;;;;;5064650;28;20048;-73
2021/09/23 09:55:40;;;;;;;12.60;6.53;;;18.10;1.00;;;;;;5068081;28;20044;-74
2021/09/23 09:58:11;;;;;;;9.75;6.07;;;18.00;1.00;;;;;;5066647;28;20040;-75
2021/09/23 10:00:55;;;;;;;10.13;6.40;;;18.20;1.00;;;;;;5063033;28;20048;-74
2021/09/23 10:03:24;;;;;;;9.20;5.32;;;18.20;1.00;;;;;;5066160;28;20048;-74
2021/09/23 10:05:54;;;;;;;8.43;5.28;;;18.20;1.00;;;;;;5061197;28;20478;-74
2021/09/23 10:08:22;;;;;;;8.88;4.80;;;18.40;1.00;;;;;;5075129;28;20110;-74
2021/09/23 10:10:52;;;;;;;7.07;4.97;;;18.60;1.00;;;;;;5062901;28;20036;-74
2021/09/23 10:13:22;;;;;;;8.45;4.80;;;18.40;1.00;;;;;;5066600;28;20045;-76
2021/09/23 10:15:54;;;;;;;8.27;4.28;;;18.60;1.00;;;;;;5066652;28;20040;-72
2021/09/23 10:18:24;;;;;;;6.72;3.90;;;18.70;1.00;;;;;;5070671;28;20055;-74
2021/09/23 10:20:54;;;;;;;8.02;4.50;;;18.60;1.00;;;;;;5064260;28;20496;-74
2021/09/23 10:23:28;;;;;;;9.15;4.60;;;18.70;1.00;;;;;;5073348;28;20101;-74
2021/09/23 10:25:59;;;;;;;8.10;4.25;;;19.00;1.00;;;;;;5064771;28;20400;-74
2021/09/23 10:28:30;;;;;;;7.68;3.90;;;19.00;1.00;;;;;;5067198;28;20523;-74
2021/09/23 10:30:59;;;;;;;9.55;3.90;;;19.20;1.00;;;;;;5065396;28;20039;-74
2021/09/23 10:33:31;;;;;;;6.15;4.97;;;19.50;1.00;;;;;;5067363;28;20407;-74
2021/09/23 10:36:01;;;;;;;6.10;4.22;;;19.60;1.00;;;;;;5062888;28;20037;-75
2021/09/23 10:38:31;;;;;;;6.55;4.18;;;19.30;1.00;;;;;;5063664;28;20044;-75
2021/09/23 10:40:59;;;;;;;5.07;4.00;;;19.60;1.00;;;;;;5064818;28;20056;-75
2021/09/23 10:43:31;;;;;;;7.70;4.07;;;19.70;1.00;;;;;;5068726;28;20056;-74
2021/09/23 10:46:01;;;;;;;6.45;3.78;;;19.80;1.00;;;;;;5063517;28;20131;-74
2021/09/23 10:48:34;;;;;;;7.55;3.50;;;19.80;1.00;;;;;;5068184;28;20037;-75
2021/09/23 10:51:05;;;;;;;8.25;3.95;;;19.90;1.00;;;;;;5045012;28;20044;-74
2021/09/23 10:53:34;;;;;;;5.70;4.00;;;20.00;1.00;;;;;;5048606;28;20119;-75
2021/09/23 10:56:06;;;;;;;6.28;3.47;;;19.90;1.00;;;;;;5047073;28;20095;-74
2021/09/23 10:58:39;;;;;;;5.43;3.55;;;19.80;1.00;;;;;;5066918;28;20036;-75
2021/09/23 11:01:08;;;;;;;6.65;3.95;;;20.20;1.00;;;;;;5064058;28;20132;-74
2021/09/23 11:03:43;;;;;;;7.60;3.97;;;19.90;1.00;;;;;;5066561;28;20037;-74
2021/09/23 11:06:12;;;;;;;6.28;3.90;;;19.70;1.00;;;;;;5062748;28;20416;-74
2021/09/23 11:08:42;;;;;;;6.63;3.60;;;19.90;1.00;;;;;;5068279;28;20123;-74
2021/09/23 11:11:10;;;;;;;4.50;3.13;;;20.00;1.00;;;;;;5066672;28;20055;-75
2021/09/23 11:13:42;;;;;;;9.38;3.20;;;20.20;1.00;;;;;;5072113;28;20075;-74
2021/09/23 11:16:18;;;;;;;4.85;3.20;;;20.40;1.00;;;;;;5063596;28;20048;-74
2021/09/23 11:18:52;;;;;;;9.48;2.97;;;20.30;1.00;;;;;;5060443;28;20051;-74
2021/09/23 11:21:21;;;;;;;5.40;2.60;;;20.30;1.00;;;;;;5049325;28;20126;-74
2021/09/23 11:23:54;;;;;;;6.50;2.58;;;20.40;1.00;;;;;;5065811;28;20096;-74
2021/09/23 11:26:22;;;;;;;4.32;2.17;;;20.50;1.00;;;;;;5061921;28;20059;-75
2021/09/23 11:28:51;;;;;;;4.03;2.35;;;20.70;1.00;;;;;;5065913;28;20033;-74
2021/09/23 11:31:19;;;;;;;4.88;3.13;;;20.90;1.00;;;;;;5047349;28;20056;-74
2021/09/23 11:33:52;;;;;;;6.10;3.50;;;21.00;1.00;;;;;;5066559;28;20461;-74
2021/09/23 11:36:26;;;;;;;7.25;4.22;;;21.10;1.00;;;;;;5065563;28;20134;-74
2021/09/23 11:38:58;;;;;;;7.82;4.03;;;20.80;1.00;;;;;;5065656;28;20715;-74
2021/09/23 11:41:27;;;;;;;7.32;3.60;;;20.80;1.00;;;;;;5066363;28;20060;-73
2021/09/23 11:43:58;;;;;;;9.00;3.70;;;21.00;1.00;;;;;;5068989;28;20044;-74
2021/09/23 11:46:32;;;;;;;7.60;3.58;;;20.90;1.00;;;;;;5068296;28;20460;-74
2021/09/23 11:49:03;;;;;;;;;;;21.20;1.00;;;;;;5067784;28;20032;-74
2021/09/23 11:51:31;;;;;;;4.65;2.85;;;21.40;1.00;;;;;;5064210;28;19977;-73
2021/09/23 11:54:03;;;;;;;3.92;2.38;;;21.20;1.00;;;;;;5065803;28;20052;-75
2021/09/23 11:56:41;;;;;;;5.50;2.00;;;21.40;1.00;;;;;;5064098;28;20075;-75
2021/09/23 11:59:19;;;;;;;6.05;1.60;;;21.40;1.00;;;;;;5061121;28;20076;-74
2021/09/23 12:02:01;;;;;;;2.50;1.85;;;21.40;1.00;;;;;;5063247;28;20495;-73
2021/09/23 12:04:32;;;;;;;13.80;3.10;;;21.80;1.00;;;;;;5062579;28;20519;-74
2021/09/23 12:07:05;;;;;;;4.82;3.33;;;21.90;1.00;;;;;;5065191;28;20119;-74
2021/09/23 12:09:34;;;;;;;5.28;3.33;;;21.60;1.00;;;;;;5064192;28;20055;-75
2021/09/23 12:12:02;;;;;;;4.15;2.85;;;21.40;1.00;;;;;;5066043;28;20040;-74
2021/09/23 12:14:33;;;;;;;5.03;2.97;;;21.30;1.00;;;;;;5064721;28;20132;-74
2021/09/23 12:17:02;;;;;;;5.00;2.65;;;21.30;1.00;;;;;;5064875;28;20055;-74
2021/09/23 12:19:34;;;;;;;6.25;2.78;;;21.50;1.00;;;;;;5064994;28;20617;-73
2021/09/23 12:22:02;;;;;;;6.03;3.03;;;21.30;1.00;;;;;;5063047;28;20044;-74
2021/09/23 12:24:32;;;;;;;5.63;2.92;;;21.00;1.00;;;;;;5069860;28;20066;-74
2021/09/23 12:27:00;;;;;;;4.85;2.75;;;21.40;1.00;;;;;;5062521;28;20045;-74
2021/09/23 12:29:32;;;;;;;7.50;2.58;;;21.30;1.00;;;;;;5063115;28;20041;-75
2021/09/23 12:32:04;;;;;;;5.68;2.75;;;21.40;1.00;;;;;;5066870;28;20060;-72
2021/09/23 12:34:42;;;;;;;3.15;1.95;;;21.30;1.00;;;;;;5067110;28;20047;-73
2021/09/23 12:37:16;;;;;;;6.03;2.83;;;21.50;1.00;;;;;;5063005;28;20156;-73
2021/09/23 12:39:47;;;;;;;5.28;2.70;;;21.60;1.00;;;;;;5062705;28;20072;-73
2021/09/23 12:42:20;;;;;;;4.13;2.42;;;21.30;1.00;;;;;;5064683;28;20104;-74
2021/09/23 12:44:56;;;;;;;4.13;2.50;;;21.40;1.00;;;;;;5052784;28;20060;-74
2021/09/23 12:47:24;;;;;;;4.75;2.28;;;21.50;1.00;;;;;;5064351;28;20077;-73
2021/09/23 12:50:02;;;;;;;3.20;2.40;;;21.60;1.00;;;;;;5064685;28;20067;-72
2021/09/23 12:52:37;;;;;;;4.68;2.00;;;21.80;1.00;;;;;;5068067;28;20040;-73
2021/09/23 12:55:13;;;;;;;3.42;2.15;;;21.50;1.00;;;;;;5065747;28;20060;-73
2021/09/23 12:57:47;;;;;;;3.67;2.10;;;21.70;1.00;;;;;;5064939;28;20044;-74